sensor_id;sensor_type;location;lat;lon;timestamp;P1;durP1;ratioP1;P2;durP2;ratioP2
10721;SDS011;5412;59.450;18.124;2023-07-13T00:00:24;3.25;;;2.47;;
10721;SDS011;5412;59.450;18.124;2023-07-13T00:02:51;2.40;;;2.22;;
10721;SDS011;5412;59.450;18.124;2023-07-13T00:05:20;3.40;;;2.72;;
10721;SDS011;5412;59.450;18.124;2023-07-13T00:07:47;3.50;;;2.70;;
10721;SDS011;5412;59.450;18.124;2023-07-13T00:10:13;3.53;;;2.42;;
10721;SDS011;5412;59.450;18.124;2023-07-13T00:12:39;3.30;;;2.40;;
10721;SDS011;5412;59.450;18.124;2023-07-13T00:15:07;3.90;;;2.67;;
10721;SDS011;5412;59.450;18.124;2023-07-13T00:17:47;3.28;;;2.67;;
10721;SDS011;5412;59.450;18.124;2023-07-13T00:20:14;2.92;;;2.22;;
10721;SDS011;5412;59.450;18.124;2023-07-13T00:22:40;3.70;;;2.50;;
10721;SDS011;5412;59.450;18.124;2023-07-13T00:25:06;3.30;;;2.63;;
10721;SDS011;5412;59.450;18.124;2023-07-13T00:27:33;2.80;;;2.33;;
10721;SDS011;5412;59.450;18.124;2023-07-13T00:29:59;5.55;;;2.80;;
10721;SDS011;5412;59.450;18.124;2023-07-13T00:32:25;3.20;;;2.75;;
10721;SDS011;5412;59.450;18.124;2023-07-13T00:34:51;3.20;;;2.22;;
10721;SDS011;5412;59.450;18.124;2023-07-13T00:37:17;3.03;;;2.20;;
10721;SDS011;5412;59.450;18.124;2023-07-13T00:39:43;2.13;;;1.92;;
10721;SDS011;5412;59.450;18.124;2023-07-13T00:42:09;3.15;;;2.40;;
10721;SDS011;5412;59.450;18.124;2023-07-13T00:44:36;2.67;;;2.08;;
10721;SDS011;5412;59.450;18.124;2023-07-13T00:47:01;2.88;;;2.53;;
10721;SDS011;5412;59.450;18.124;2023-07-13T00:49:29;3.05;;;2.42;;
10721;SDS011;5412;59.450;18.124;2023-07-13T00:51:58;3.00;;;2.47;;
10721;SDS011;5412;59.450;18.124;2023-07-13T00:54:36;4.25;;;2.50;;
10721;SDS011;5412;59.450;18.124;2023-07-13T00:57:06;2.72;;;2.30;;
10721;SDS011;5412;59.450;18.124;2023-07-13T00:59:35;2.38;;;2.17;;
10721;SDS011;5412;59.450;18.124;2023-07-13T01:02:02;4.18;;;2.40;;
10721;SDS011;5412;59.450;18.124;2023-07-13T01:04:28;3.30;;;2.15;;
10721;SDS011;5412;59.450;18.124;2023-07-13T01:06:54;2.72;;;2.33;;
10721;SDS011;5412;59.450;18.124;2023-07-13T01:09:22;2.15;;;2.05;;
10721;SDS011;5412;59.450;18.124;2023-07-13T01:11:48;2.35;;;2.03;;
10721;SDS011;5412;59.450;18.124;2023-07-13T01:14:14;2.65;;;2.45;;
10721;SDS011;5412;59.450;18.124;2023-07-13T01:16:42;2.70;;;2.15;;
10721;SDS011;5412;59.450;18.124;2023-07-13T01:22:12;4.03;;;2.35;;
10721;SDS011;5412;59.450;18.124;2023-07-13T01:24:44;2.75;;;2.47;;
10721;SDS011;5412;59.450;18.124;2023-07-13T01:27:12;2.42;;;2.22;;
10721;SDS011;5412;59.450;18.124;2023-07-13T01:29:41;3.78;;;2.10;;
10721;SDS011;5412;59.450;18.124;2023-07-13T01:32:09;3.05;;;2.38;;
10721;SDS011;5412;59.450;18.124;2023-07-13T01:34:36;2.40;;;2.20;;
10721;SDS011;5412;59.450;18.124;2023-07-13T01:37:02;3.83;;;2.05;;
10721;SDS011;5412;59.450;18.124;2023-07-13T01:39:29;3.92;;;2.85;;
10721;SDS011;5412;59.450;18.124;2023-07-13T01:41:56;3.38;;;2.17;;
10721;SDS011;5412;59.450;18.124;2023-07-13T01:44:22;4.55;;;2.35;;
10721;SDS011;5412;59.450;18.124;2023-07-13T01:46:48;2.88;;;2.10;;
10721;SDS011;5412;59.450;18.124;2023-07-13T01:49:14;2.78;;;2.38;;
10721;SDS011;5412;59.450;18.124;2023-07-13T01:51:39;3.40;;;2.78;;
10721;SDS011;5412;59.450;18.124;2023-07-13T01:54:05;3.47;;;2.00;;
10721;SDS011;5412;59.450;18.124;2023-07-13T01:56:31;2.50;;;1.98;;
10721;SDS011;5412;59.450;18.124;2023-07-13T01:58:56;3.35;;;2.40;;
10721;SDS011;5412;59.450;18.124;2023-07-13T02:01:22;2.60;;;2.30;;
10721;SDS011;5412;59.450;18.124;2023-07-13T02:03:48;2.50;;;2.30;;
10721;SDS011;5412;59.450;18.124;2023-07-13T02:06:13;4.32;;;2.58;;
10721;SDS011;5412;59.450;18.124;2023-07-13T02:08:40;3.72;;;2.30;;
10721;SDS011;5412;59.450;18.124;2023-07-13T02:11:07;4.28;;;2.45;;
10721;SDS011;5412;59.450;18.124;2023-07-13T02:13:32;3.95;;;2.03;;
10721;SDS011;5412;59.450;18.124;2023-07-13T02:15:58;2.50;;;2.30;;
10721;SDS011;5412;59.450;18.124;2023-07-13T02:18:24;3.30;;;2.20;;
10721;SDS011;5412;59.450;18.124;2023-07-13T02:20:49;5.57;;;2.40;;
10721;SDS011;5412;59.450;18.124;2023-07-13T02:23:15;3.05;;;2.13;;
10721;SDS011;5412;59.450;18.124;2023-07-13T02:25:41;5.10;;;2.50;;
10721;SDS011;5412;59.450;18.124;2023-07-13T02:28:06;3.30;;;2.35;;
10721;SDS011;5412;59.450;18.124;2023-07-13T02:30:33;3.90;;;2.35;;
10721;SDS011;5412;59.450;18.124;2023-07-13T02:32:59;2.20;;;2.00;;
10721;SDS011;5412;59.450;18.124;2023-07-13T02:35:25;2.15;;;2.00;;
10721;SDS011;5412;59.450;18.124;2023-07-13T02:37:51;4.80;;;2.13;;
10721;SDS011;5412;59.450;18.124;2023-07-13T02:40:17;2.45;;;2.25;;
10721;SDS011;5412;59.450;18.124;2023-07-13T02:42:43;3.22;;;2.15;;
10721;SDS011;5412;59.450;18.124;2023-07-13T02:45:08;3.92;;;2.40;;
10721;SDS011;5412;59.450;18.124;2023-07-13T02:47:35;4.97;;;2.60;;
10721;SDS011;5412;59.450;18.124;2023-07-13T02:50:01;2.60;;;2.40;;
10721;SDS011;5412;59.450;18.124;2023-07-13T02:52:27;3.88;;;2.40;;
10721;SDS011;5412;59.450;18.124;2023-07-13T02:54:53;2.50;;;2.20;;
10721;SDS011;5412;59.450;18.124;2023-07-13T02:57:19;2.70;;;2.13;;
10721;SDS011;5412;59.450;18.124;2023-07-13T02:59:45;2.40;;;2.20;;
10721;SDS011;5412;59.450;18.124;2023-07-13T03:02:11;2.95;;;2.30;;
10721;SDS011;5412;59.450;18.124;2023-07-13T03:04:37;2.45;;;2.25;;
10721;SDS011;5412;59.450;18.124;2023-07-13T03:07:03;2.90;;;2.60;;
10721;SDS011;5412;59.450;18.124;2023-07-13T03:09:29;7.05;;;2.65;;
10721;SDS011;5412;59.450;18.124;2023-07-13T03:11:56;3.80;;;2.47;;
10721;SDS011;5412;59.450;18.124;2023-07-13T03:14:22;2.60;;;2.40;;
10721;SDS011;5412;59.450;18.124;2023-07-13T03:16:48;2.47;;;2.28;;
10721;SDS011;5412;59.450;18.124;2023-07-13T03:19:14;5.57;;;2.42;;
10721;SDS011;5412;59.450;18.124;2023-07-13T03:21:40;2.92;;;2.42;;
10721;SDS011;5412;59.450;18.124;2023-07-13T03:24:06;3.33;;;2.40;;
10721;SDS011;5412;59.450;18.124;2023-07-13T03:26:32;6.40;;;2.80;;
10721;SDS011;5412;59.450;18.124;2023-07-13T03:28:58;5.78;;;2.42;;
10721;SDS011;5412;59.450;18.124;2023-07-13T03:31:26;3.42;;;2.50;;
10721;SDS011;5412;59.450;18.124;2023-07-13T03:33:54;5.57;;;2.33;;
10721;SDS011;5412;59.450;18.124;2023-07-13T03:36:21;6.28;;;2.75;;
10721;SDS011;5412;59.450;18.124;2023-07-13T03:38:49;5.07;;;2.75;;
10721;SDS011;5412;59.450;18.124;2023-07-13T03:41:18;5.38;;;2.88;;
10721;SDS011;5412;59.450;18.124;2023-07-13T03:43:44;5.55;;;2.67;;
10721;SDS011;5412;59.450;18.124;2023-07-13T03:46:10;2.78;;;2.50;;
10721;SDS011;5412;59.450;18.124;2023-07-13T03:48:36;3.78;;;2.53;;
10721;SDS011;5412;59.450;18.124;2023-07-13T03:51:02;5.82;;;2.92;;
10721;SDS011;5412;59.450;18.124;2023-07-13T03:53:27;2.65;;;2.40;;
10721;SDS011;5412;59.450;18.124;2023-07-13T03:55:54;3.03;;;2.38;;
10721;SDS011;5412;59.450;18.124;2023-07-13T03:58:39;4.38;;;2.50;;
10721;SDS011;5412;59.450;18.124;2023-07-13T04:01:06;6.05;;;2.63;;
10721;SDS011;5412;59.450;18.124;2023-07-13T04:03:34;5.85;;;2.72;;
10721;SDS011;5412;59.450;18.124;2023-07-13T04:06:01;2.80;;;2.58;;
10721;SDS011;5412;59.450;18.124;2023-07-13T04:08:28;3.72;;;2.58;;
10721;SDS011;5412;59.450;18.124;2023-07-13T04:10:56;2.83;;;2.55;;
10721;SDS011;5412;59.450;18.124;2023-07-13T04:13:22;5.65;;;2.60;;
10721;SDS011;5412;59.450;18.124;2023-07-13T04:15:48;4.07;;;2.58;;
10721;SDS011;5412;59.450;18.124;2023-07-13T04:18:15;3.70;;;2.35;;
10721;SDS011;5412;59.450;18.124;2023-07-13T04:20:40;3.72;;;2.70;;
10721;SDS011;5412;59.450;18.124;2023-07-13T04:23:06;4.20;;;2.50;;
10721;SDS011;5412;59.450;18.124;2023-07-13T04:25:32;4.25;;;2.35;;
10721;SDS011;5412;59.450;18.124;2023-07-13T04:27:57;9.45;;;2.60;;
10721;SDS011;5412;59.450;18.124;2023-07-13T04:30:23;7.72;;;2.33;;
10721;SDS011;5412;59.450;18.124;2023-07-13T04:32:50;3.10;;;2.70;;
10721;SDS011;5412;59.450;18.124;2023-07-13T04:35:17;7.50;;;2.60;;
10721;SDS011;5412;59.450;18.124;2023-07-13T04:37:47;2.95;;;2.50;;
10721;SDS011;5412;59.450;18.124;2023-07-13T04:40:15;5.15;;;2.53;;
10721;SDS011;5412;59.450;18.124;2023-07-13T04:42:44;3.60;;;2.20;;
10721;SDS011;5412;59.450;18.124;2023-07-13T04:45:11;2.75;;;2.30;;
10721;SDS011;5412;59.450;18.124;2023-07-13T04:47:39;4.72;;;2.20;;
10721;SDS011;5412;59.450;18.124;2023-07-13T04:50:05;3.42;;;2.08;;
10721;SDS011;5412;59.450;18.124;2023-07-13T04:52:32;3.05;;;1.90;;
10721;SDS011;5412;59.450;18.124;2023-07-13T04:54:59;1.85;;;1.67;;
10721;SDS011;5412;59.450;18.124;2023-07-13T04:57:25;4.03;;;2.42;;
10721;SDS011;5412;59.450;18.124;2023-07-13T04:59:51;3.60;;;2.40;;
10721;SDS011;5412;59.450;18.124;2023-07-13T05:02:17;2.30;;;2.10;;
10721;SDS011;5412;59.450;18.124;2023-07-13T05:04:46;5.57;;;2.30;;
10721;SDS011;5412;59.450;18.124;2023-07-13T05:07:12;3.72;;;2.38;;
10721;SDS011;5412;59.450;18.124;2023-07-13T05:09:38;2.72;;;2.10;;
10721;SDS011;5412;59.450;18.124;2023-07-13T05:12:05;5.60;;;1.98;;
10721;SDS011;5412;59.450;18.124;2023-07-13T05:14:32;6.40;;;2.13;;
10721;SDS011;5412;59.450;18.124;2023-07-13T05:16:57;4.13;;;1.90;;
10721;SDS011;5412;59.450;18.124;2023-07-13T05:19:23;3.30;;;1.77;;
10721;SDS011;5412;59.450;18.124;2023-07-13T05:21:49;9.32;;;2.67;;
10721;SDS011;5412;59.450;18.124;2023-07-13T05:24:15;2.72;;;1.90;;
10721;SDS011;5412;59.450;18.124;2023-07-13T05:26:40;3.72;;;1.75;;
10721;SDS011;5412;59.450;18.124;2023-07-13T05:29:06;6.35;;;2.15;;
10721;SDS011;5412;59.450;18.124;2023-07-13T05:31:32;4.07;;;1.95;;
10721;SDS011;5412;59.450;18.124;2023-07-13T05:33:58;5.97;;;2.20;;
10721;SDS011;5412;59.450;18.124;2023-07-13T05:36:23;3.97;;;1.80;;
10721;SDS011;5412;59.450;18.124;2023-07-13T05:38:49;4.82;;;2.00;;
10721;SDS011;5412;59.450;18.124;2023-07-13T05:41:15;3.75;;;1.80;;
10721;SDS011;5412;59.450;18.124;2023-07-13T05:43:40;6.18;;;2.00;;
10721;SDS011;5412;59.450;18.124;2023-07-13T05:46:06;2.90;;;1.77;;
10721;SDS011;5412;59.450;18.124;2023-07-13T05:48:32;3.33;;;1.95;;
10721;SDS011;5412;59.450;18.124;2023-07-13T05:50:57;3.35;;;2.10;;
10721;SDS011;5412;59.450;18.124;2023-07-13T05:53:23;2.63;;;1.90;;
10721;SDS011;5412;59.450;18.124;2023-07-13T05:55:49;5.13;;;1.90;;
10721;SDS011;5412;59.450;18.124;2023-07-13T05:58:16;4.00;;;2.00;;
10721;SDS011;5412;59.450;18.124;2023-07-13T06:00:43;3.15;;;1.83;;
10721;SDS011;5412;59.450;18.124;2023-07-13T06:03:08;3.72;;;1.73;;
10721;SDS011;5412;59.450;18.124;2023-07-13T06:05:35;3.15;;;1.88;;
10721;SDS011;5412;59.450;18.124;2023-07-13T06:08:03;3.38;;;1.95;;
10721;SDS011;5412;59.450;18.124;2023-07-13T06:10:29;3.92;;;2.05;;
10721;SDS011;5412;59.450;18.124;2023-07-13T06:12:57;6.75;;;2.38;;
10721;SDS011;5412;59.450;18.124;2023-07-13T06:15:23;4.95;;;2.00;;
10721;SDS011;5412;59.450;18.124;2023-07-13T06:17:49;2.63;;;1.90;;
10721;SDS011;5412;59.450;18.124;2023-07-13T06:20:14;7.97;;;2.10;;
10721;SDS011;5412;59.450;18.124;2023-07-13T06:22:40;3.50;;;2.17;;
10721;SDS011;5412;59.450;18.124;2023-07-13T06:25:06;1.73;;;1.60;;
10721;SDS011;5412;59.450;18.124;2023-07-13T06:27:32;3.65;;;1.98;;
10721;SDS011;5412;59.450;18.124;2023-07-13T06:29:58;3.67;;;1.65;;
10721;SDS011;5412;59.450;18.124;2023-07-13T06:32:24;5.22;;;2.13;;
10721;SDS011;5412;59.450;18.124;2023-07-13T06:34:49;5.25;;;1.70;;
10721;SDS011;5412;59.450;18.124;2023-07-13T06:37:17;1.98;;;1.55;;
10721;SDS011;5412;59.450;18.124;2023-07-13T06:39:43;3.58;;;1.60;;
10721;SDS011;5412;59.450;18.124;2023-07-13T06:42:09;3.45;;;1.65;;
10721;SDS011;5412;59.450;18.124;2023-07-13T06:44:36;3.17;;;1.50;;
10721;SDS011;5412;59.450;18.124;2023-07-13T06:47:01;2.35;;;1.30;;
10721;SDS011;5412;59.450;18.124;2023-07-13T06:49:27;4.00;;;2.15;;
10721;SDS011;5412;59.450;18.124;2023-07-13T06:51:53;3.20;;;1.60;;
10721;SDS011;5412;59.450;18.124;2023-07-13T06:54:19;4.38;;;1.58;;
10721;SDS011;5412;59.450;18.124;2023-07-13T06:56:44;2.92;;;1.52;;
10721;SDS011;5412;59.450;18.124;2023-07-13T06:59:10;4.10;;;1.52;;
10721;SDS011;5412;59.450;18.124;2023-07-13T07:01:36;3.00;;;1.60;;
10721;SDS011;5412;59.450;18.124;2023-07-13T07:04:02;2.35;;;1.30;;
10721;SDS011;5412;59.450;18.124;2023-07-13T07:06:29;4.07;;;1.35;;
10721;SDS011;5412;59.450;18.124;2023-07-13T07:08:55;3.25;;;1.70;;
10721;SDS011;5412;59.450;18.124;2023-07-13T07:11:22;3.72;;;1.50;;
10721;SDS011;5412;59.450;18.124;2023-07-13T07:13:51;3.92;;;1.60;;
10721;SDS011;5412;59.450;18.124;2023-07-13T07:16:17;7.00;;;1.80;;
10721;SDS011;5412;59.450;18.124;2023-07-13T07:18:44;9.07;;;1.80;;
10721;SDS011;5412;59.450;18.124;2023-07-13T07:21:10;3.83;;;1.45;;
10721;SDS011;5412;59.450;18.124;2023-07-13T07:23:37;4.90;;;1.70;;
10721;SDS011;5412;59.450;18.124;2023-07-13T07:26:02;3.38;;;1.48;;
10721;SDS011;5412;59.450;18.124;2023-07-13T07:28:28;2.72;;;1.30;;
10721;SDS011;5412;59.450;18.124;2023-07-13T07:30:55;2.75;;;1.20;;
10721;SDS011;5412;59.450;18.124;2023-07-13T07:33:22;2.60;;;1.38;;
10721;SDS011;5412;59.450;18.124;2023-07-13T07:35:48;6.43;;;1.70;;
10721;SDS011;5412;59.450;18.124;2023-07-13T07:38:14;6.22;;;1.38;;
10721;SDS011;5412;59.450;18.124;2023-07-13T07:40:40;6.85;;;2.17;;
10721;SDS011;5412;59.450;18.124;2023-07-13T07:43:07;3.85;;;1.42;;
10721;SDS011;5412;59.450;18.124;2023-07-13T07:45:34;3.70;;;1.50;;
10721;SDS011;5412;59.450;18.124;2023-07-13T07:48:00;2.90;;;1.70;;
10721;SDS011;5412;59.450;18.124;2023-07-13T07:50:27;3.13;;;1.60;;
10721;SDS011;5412;59.450;18.124;2023-07-13T07:52:53;3.80;;;1.50;;
10721;SDS011;5412;59.450;18.124;2023-07-13T07:55:21;2.72;;;1.42;;
10721;SDS011;5412;59.450;18.124;2023-07-13T07:57:47;3.95;;;1.33;;
10721;SDS011;5412;59.450;18.124;2023-07-13T08:00:14;5.03;;;1.92;;
10721;SDS011;5412;59.450;18.124;2023-07-13T08:02:40;3.28;;;1.73;;
10721;SDS011;5412;59.450;18.124;2023-07-13T08:05:06;3.88;;;1.55;;
10721;SDS011;5412;59.450;18.124;2023-07-13T08:07:34;3.10;;;1.50;;
10721;SDS011;5412;59.450;18.124;2023-07-13T08:10:00;3.97;;;1.35;;
10721;SDS011;5412;59.450;18.124;2023-07-13T08:12:26;3.30;;;1.50;;
10721;SDS011;5412;59.450;18.124;2023-07-13T08:14:52;3.75;;;1.23;;
10721;SDS011;5412;59.450;18.124;2023-07-13T08:17:23;4.55;;;1.55;;
10721;SDS011;5412;59.450;18.124;2023-07-13T08:19:50;6.25;;;1.63;;
10721;SDS011;5412;59.450;18.124;2023-07-13T08:22:16;2.72;;;1.33;;
10721;SDS011;5412;59.450;18.124;2023-07-13T08:24:42;2.05;;;1.40;;
10721;SDS011;5412;59.450;18.124;2023-07-13T08:27:08;3.65;;;1.40;;
10721;SDS011;5412;59.450;18.124;2023-07-13T08:29:36;3.83;;;1.40;;
10721;SDS011;5412;59.450;18.124;2023-07-13T08:32:02;4.07;;;1.35;;
10721;SDS011;5412;59.450;18.124;2023-07-13T08:34:29;6.30;;;1.73;;
10721;SDS011;5412;59.450;18.124;2023-07-13T08:36:55;5.63;;;1.48;;
10721;SDS011;5412;59.450;18.124;2023-07-13T08:39:21;2.63;;;1.35;;
10721;SDS011;5412;59.450;18.124;2023-07-13T08:41:50;3.33;;;1.83;;
10721;SDS011;5412;59.450;18.124;2023-07-13T08:44:25;2.80;;;1.45;;
10721;SDS011;5412;59.450;18.124;2023-07-13T08:47:11;4.07;;;1.40;;
10721;SDS011;5412;59.450;18.124;2023-07-13T08:49:38;1.65;;;1.30;;
10721;SDS011;5412;59.450;18.124;2023-07-13T08:52:14;3.75;;;1.60;;
10721;SDS011;5412;59.450;18.124;2023-07-13T08:54:51;2.35;;;1.42;;
10721;SDS011;5412;59.450;18.124;2023-07-13T08:57:20;4.18;;;1.40;;
10721;SDS011;5412;59.450;18.124;2023-07-13T08:59:49;3.20;;;1.30;;
10721;SDS011;5412;59.450;18.124;2023-07-13T09:15:37;2.85;;;1.48;;
10721;SDS011;5412;59.450;18.124;2023-07-13T09:20:57;3.47;;;1.27;;
10721;SDS011;5412;59.450;18.124;2023-07-13T09:23:28;3.22;;;1.30;;
10721;SDS011;5412;59.450;18.124;2023-07-13T09:26:05;3.20;;;1.48;;
10721;SDS011;5412;59.450;18.124;2023-07-13T09:28:45;2.60;;;1.17;;
10721;SDS011;5412;59.450;18.124;2023-07-13T09:31:14;3.63;;;1.17;;
10721;SDS011;5412;59.450;18.124;2023-07-13T09:33:41;2.42;;;1.25;;
10721;SDS011;5412;59.450;18.124;2023-07-13T09:38:53;2.55;;;1.30;;
10721;SDS011;5412;59.450;18.124;2023-07-13T09:47:15;3.22;;;1.17;;
10721;SDS011;5412;59.450;18.124;2023-07-13T09:49:43;2.78;;;1.20;;
10721;SDS011;5412;59.450;18.124;2023-07-13T09:52:14;3.38;;;1.40;;
10721;SDS011;5412;59.450;18.124;2023-07-13T09:54:44;4.13;;;1.20;;
10721;SDS011;5412;59.450;18.124;2023-07-13T09:57:15;2.70;;;1.23;;
10721;SDS011;5412;59.450;18.124;2023-07-13T09:59:48;4.07;;;1.25;;
10721;SDS011;5412;59.450;18.124;2023-07-13T10:02:27;1.80;;;1.10;;
10721;SDS011;5412;59.450;18.124;2023-07-13T10:04:58;1.98;;;1.17;;
10721;SDS011;5412;59.450;18.124;2023-07-13T10:07:25;2.17;;;1.60;;
10721;SDS011;5412;59.450;18.124;2023-07-13T10:09:52;4.03;;;1.27;;
10721;SDS011;5412;59.450;18.124;2023-07-13T10:12:22;2.30;;;1.45;;
10721;SDS011;5412;59.450;18.124;2023-07-13T10:14:50;3.95;;;1.40;;
10721;SDS011;5412;59.450;18.124;2023-07-13T10:17:20;4.45;;;1.42;;
10721;SDS011;5412;59.450;18.124;2023-07-13T10:20:01;4.03;;;1.20;;
10721;SDS011;5412;59.450;18.124;2023-07-13T10:25:18;2.75;;;1.40;;
10721;SDS011;5412;59.450;18.124;2023-07-13T10:27:46;1.70;;;1.35;;
10721;SDS011;5412;59.450;18.124;2023-07-13T10:30:22;2.75;;;1.27;;
10721;SDS011;5412;59.450;18.124;2023-07-13T10:32:53;2.95;;;1.60;;
10721;SDS011;5412;59.450;18.124;2023-07-13T10:35:22;2.63;;;1.10;;
10721;SDS011;5412;59.450;18.124;2023-07-13T10:37:54;3.15;;;1.40;;
10721;SDS011;5412;59.450;18.124;2023-07-13T10:40:31;3.25;;;1.50;;
10721;SDS011;5412;59.450;18.124;2023-07-13T10:43:07;2.50;;;1.55;;
10721;SDS011;5412;59.450;18.124;2023-07-13T10:45:46;3.40;;;1.25;;
10721;SDS011;5412;59.450;18.124;2023-07-13T10:48:16;3.40;;;1.15;;
10721;SDS011;5412;59.450;18.124;2023-07-13T10:50:44;1.95;;;1.10;;
10721;SDS011;5412;59.450;18.124;2023-07-13T10:53:27;1.27;;;1.00;;
10721;SDS011;5412;59.450;18.124;2023-07-13T10:58:39;2.80;;;0.93;;
10721;SDS011;5412;59.450;18.124;2023-07-13T11:01:07;5.30;;;1.95;;
10721;SDS011;5412;59.450;18.124;2023-07-13T11:08:53;0.80;;;0.80;;
10721;SDS011;5412;59.450;18.124;2023-07-13T11:18:48;1.73;;;1.23;;
10721;SDS011;5412;59.450;18.124;2023-07-13T11:21:15;2.45;;;1.30;;
10721;SDS011;5412;59.450;18.124;2023-07-13T11:23:53;2.30;;;1.35;;
10721;SDS011;5412;59.450;18.124;2023-07-13T11:26:50;1.65;;;1.00;;
10721;SDS011;5412;59.450;18.124;2023-07-13T11:31:42;1.33;;;1.02;;
10721;SDS011;5412;59.450;18.124;2023-07-13T11:34:16;2.00;;;1.20;;
10721;SDS011;5412;59.450;18.124;2023-07-13T11:36:49;2.88;;;1.25;;
10721;SDS011;5412;59.450;18.124;2023-07-13T11:39:26;2.58;;;1.48;;
10721;SDS011;5412;59.450;18.124;2023-07-13T11:42:03;3.72;;;1.13;;
10721;SDS011;5412;59.450;18.124;2023-07-13T11:44:34;3.67;;;1.23;;
10721;SDS011;5412;59.450;18.124;2023-07-13T11:47:10;2.63;;;1.27;;
10721;SDS011;5412;59.450;18.124;2023-07-13T11:49:49;1.95;;;1.00;;
10721;SDS011;5412;59.450;18.124;2023-07-13T11:52:33;2.83;;;1.30;;
10721;SDS011;5412;59.450;18.124;2023-07-13T11:55:03;1.65;;;1.20;;
10721;SDS011;5412;59.450;18.124;2023-07-13T11:57:40;1.55;;;1.10;;
10721;SDS011;5412;59.450;18.124;2023-07-13T12:00:12;4.43;;;1.40;;
10721;SDS011;5412;59.450;18.124;2023-07-13T12:02:43;1.20;;;1.10;;
10721;SDS011;5412;59.450;18.124;2023-07-13T12:05:14;2.92;;;1.33;;
10721;SDS011;5412;59.450;18.124;2023-07-13T12:07:42;4.28;;;1.27;;
10721;SDS011;5412;59.450;18.124;2023-07-13T12:12:37;1.25;;;1.00;;
10721;SDS011;5412;59.450;18.124;2023-07-13T12:15:11;1.67;;;1.00;;
10721;SDS011;5412;59.450;18.124;2023-07-13T12:17:37;2.85;;;1.25;;
10721;SDS011;5412;59.450;18.124;2023-07-13T12:20:07;5.38;;;1.42;;
10721;SDS011;5412;59.450;18.124;2023-07-13T12:22:46;2.47;;;1.30;;
10721;SDS011;5412;59.450;18.124;2023-07-13T12:25:12;3.78;;;1.15;;
10721;SDS011;5412;59.450;18.124;2023-07-13T12:27:40;4.65;;;1.50;;
10721;SDS011;5412;59.450;18.124;2023-07-13T12:30:24;2.53;;;1.20;;
10721;SDS011;5412;59.450;18.124;2023-07-13T12:33:07;3.53;;;1.13;;
10721;SDS011;5412;59.450;18.124;2023-07-13T12:35:43;9.57;;;1.15;;
10721;SDS011;5412;59.450;18.124;2023-07-13T12:38:13;1.00;;;0.90;;
10721;SDS011;5412;59.450;18.124;2023-07-13T12:40:41;1.77;;;0.90;;
10721;SDS011;5412;59.450;18.124;2023-07-13T12:43:13;2.25;;;1.05;;
10721;SDS011;5412;59.450;18.124;2023-07-13T12:45:54;2.58;;;1.10;;
10721;SDS011;5412;59.450;18.124;2023-07-13T12:48:41;3.08;;;1.75;;
10721;SDS011;5412;59.450;18.124;2023-07-13T12:51:16;2.35;;;1.17;;
10721;SDS011;5412;59.450;18.124;2023-07-13T12:53:49;2.35;;;1.08;;
10721;SDS011;5412;59.450;18.124;2023-07-13T12:56:21;2.38;;;1.10;;
10721;SDS011;5412;59.450;18.124;2023-07-13T12:58:49;2.38;;;0.90;;
10721;SDS011;5412;59.450;18.124;2023-07-13T13:01:20;4.18;;;1.10;;
10721;SDS011;5412;59.450;18.124;2023-07-13T13:03:51;3.15;;;1.15;;
10721;SDS011;5412;59.450;18.124;2023-07-13T13:06:21;4.93;;;0.90;;
10721;SDS011;5412;59.450;18.124;2023-07-13T13:08:53;3.08;;;1.10;;
10721;SDS011;5412;59.450;18.124;2023-07-13T13:11:23;2.08;;;1.00;;
10721;SDS011;5412;59.450;18.124;2023-07-13T13:13:51;1.52;;;1.08;;
10721;SDS011;5412;59.450;18.124;2023-07-13T13:18:57;1.17;;;0.90;;
10721;SDS011;5412;59.450;18.124;2023-07-13T13:21:25;2.08;;;1.38;;
10721;SDS011;5412;59.450;18.124;2023-07-13T13:23:51;1.50;;;1.00;;
10721;SDS011;5412;59.450;18.124;2023-07-13T13:26:18;2.15;;;1.40;;
10721;SDS011;5412;59.450;18.124;2023-07-13T13:28:48;4.72;;;1.10;;
10721;SDS011;5412;59.450;18.124;2023-07-13T13:31:14;1.20;;;1.10;;
10721;SDS011;5412;59.450;18.124;2023-07-13T13:33:41;3.80;;;1.23;;
10721;SDS011;5412;59.450;18.124;2023-07-13T13:36:17;3.20;;;1.15;;
10721;SDS011;5412;59.450;18.124;2023-07-13T13:38:45;2.70;;;1.38;;
10721;SDS011;5412;59.450;18.124;2023-07-13T13:41:12;3.25;;;1.55;;
10721;SDS011;5412;59.450;18.124;2023-07-13T13:43:39;4.10;;;1.20;;
10721;SDS011;5412;59.450;18.124;2023-07-13T13:46:16;2.65;;;1.30;;
10721;SDS011;5412;59.450;18.124;2023-07-13T13:48:44;3.00;;;1.33;;
10721;SDS011;5412;59.450;18.124;2023-07-13T13:51:15;3.55;;;1.30;;
10721;SDS011;5412;59.450;18.124;2023-07-13T13:53:46;1.50;;;0.85;;
10721;SDS011;5412;59.450;18.124;2023-07-13T13:56:13;3.03;;;1.23;;
10721;SDS011;5412;59.450;18.124;2023-07-13T13:58:39;2.17;;;1.20;;
10721;SDS011;5412;59.450;18.124;2023-07-13T14:01:09;3.40;;;1.25;;
10721;SDS011;5412;59.450;18.124;2023-07-13T14:03:39;4.43;;;1.55;;
10721;SDS011;5412;59.450;18.124;2023-07-13T14:06:05;2.28;;;1.10;;
10721;SDS011;5412;59.450;18.124;2023-07-13T14:08:32;1.77;;;1.17;;
10721;SDS011;5412;59.450;18.124;2023-07-13T14:10:58;2.65;;;1.27;;
10721;SDS011;5412;59.450;18.124;2023-07-13T14:13:26;2.58;;;1.02;;
10721;SDS011;5412;59.450;18.124;2023-07-13T14:15:57;1.52;;;1.15;;
10721;SDS011;5412;59.450;18.124;2023-07-13T14:18:24;3.90;;;1.60;;
10721;SDS011;5412;59.450;18.124;2023-07-13T14:20:50;3.13;;;1.40;;
10721;SDS011;5412;59.450;18.124;2023-07-13T14:23:17;1.58;;;1.10;;
10721;SDS011;5412;59.450;18.124;2023-07-13T14:25:43;2.20;;;1.25;;
10721;SDS011;5412;59.450;18.124;2023-07-13T14:28:21;2.67;;;1.70;;
10721;SDS011;5412;59.450;18.124;2023-07-13T14:30:49;1.70;;;1.10;;
10721;SDS011;5412;59.450;18.124;2023-07-13T14:33:16;1.75;;;1.30;;
10721;SDS011;5412;59.450;18.124;2023-07-13T14:35:42;4.55;;;1.50;;
10721;SDS011;5412;59.450;18.124;2023-07-13T14:38:15;3.63;;;1.23;;
10721;SDS011;5412;59.450;18.124;2023-07-13T14:40:43;3.45;;;1.30;;
10721;SDS011;5412;59.450;18.124;2023-07-13T14:43:15;2.33;;;1.20;;
10721;SDS011;5412;59.450;18.124;2023-07-13T14:45:48;2.33;;;1.27;;
10721;SDS011;5412;59.450;18.124;2023-07-13T14:48:19;3.85;;;1.23;;
10721;SDS011;5412;59.450;18.124;2023-07-13T14:50:49;3.78;;;1.10;;
10721;SDS011;5412;59.450;18.124;2023-07-13T14:53:21;1.20;;;1.10;;
10721;SDS011;5412;59.450;18.124;2023-07-13T14:55:47;3.83;;;1.13;;
10721;SDS011;5412;59.450;18.124;2023-07-13T14:58:13;1.88;;;1.10;;
10721;SDS011;5412;59.450;18.124;2023-07-13T15:00:39;2.50;;;1.17;;
10721;SDS011;5412;59.450;18.124;2023-07-13T15:03:05;2.72;;;1.10;;
10721;SDS011;5412;59.450;18.124;2023-07-13T15:05:47;3.70;;;1.40;;
10721;SDS011;5412;59.450;18.124;2023-07-13T15:08:13;2.72;;;1.25;;
10721;SDS011;5412;59.450;18.124;2023-07-13T15:10:40;2.50;;;1.30;;
10721;SDS011;5412;59.450;18.124;2023-07-13T15:13:16;3.00;;;1.35;;
10721;SDS011;5412;59.450;18.124;2023-07-13T15:15:45;0.88;;;0.85;;
10721;SDS011;5412;59.450;18.124;2023-07-13T15:18:12;3.67;;;1.30;;
10721;SDS011;5412;59.450;18.124;2023-07-13T15:20:42;4.05;;;1.20;;
10721;SDS011;5412;59.450;18.124;2023-07-13T15:23:10;6.88;;;1.48;;
10721;SDS011;5412;59.450;18.124;2023-07-13T15:25:37;4.38;;;1.20;;
10721;SDS011;5412;59.450;18.124;2023-07-13T15:28:03;2.08;;;0.90;;
10721;SDS011;5412;59.450;18.124;2023-07-13T15:30:30;2.10;;;1.17;;
10721;SDS011;5412;59.450;18.124;2023-07-13T15:33:01;2.53;;;1.00;;
10721;SDS011;5412;59.450;18.124;2023-07-13T15:35:36;1.20;;;1.08;;
10721;SDS011;5412;59.450;18.124;2023-07-13T15:38:05;1.85;;;1.20;;
10721;SDS011;5412;59.450;18.124;2023-07-13T15:40:39;3.40;;;1.10;;
10721;SDS011;5412;59.450;18.124;2023-07-13T15:43:09;2.28;;;1.30;;
10721;SDS011;5412;59.450;18.124;2023-07-13T15:45:36;2.50;;;1.17;;
10721;SDS011;5412;59.450;18.124;2023-07-13T15:48:08;2.50;;;1.40;;